Time;durP1;ratioP1;P1;durP2;ratioP2;P2;SDS_P1;SDS_P2;PMS_P1;PMS_P2;Temp;Humidity;BMP_temperature;BMP_pressure;BME280_temperature;BME280_humidity;BME280_pressure;Samples;Min_cycle;Max_cycle;Signal;HPM_P1;HPM_P2
2022/04/28 00:00:55;;;;;;;10.98;7.70;;;;;;;;;;5051354;28;20032;-74
2022/04/28 00:03:20;;;;;;;11.02;7.72;;;;;;;;;;5051215;28;20025;-74
2022/04/28 00:05:46;;;;;;;8.55;7.35;;;;;;;;;;5051198;28;20425;-74
2022/04/28 00:08:12;;;;;;;9.70;7.90;;;;;;;;;;5050865;28;20619;-73
2022/04/28 00:10:39;;;;;;;11.93;7.65;;;;;;;;;;5051077;28;20033;-74
2022/04/28 00:13:06;;;;;;;10.30;7.78;;;;;;;;;;5051086;28;20036;-74
2022/04/28 00:15:31;;;;;;;10.07;7.55;;;;;;;;;;5051034;28;20107;-74
2022/04/28 00:17:56;;;;;;;9.38;7.88;;;;;;;;;;5050809;28;20108;-74
2022/04/28 00:20:22;;;;;;;9.75;7.75;;;;;;;;;;5050862;28;20111;-74
2022/04/28 00:22:47;;;;;;;10.27;7.97;;;;;;;;;;5050818;28;20041;-74
2022/04/28 00:25:13;;;;;;;9.57;7.43;;;;;;;;;;5050996;28;20074;-74
2022/04/28 00:27:39;;;;;;;12.32;8.27;;;;;;;;;;5051039;28;20037;-74
2022/04/28 00:30:05;;;;;;;10.23;8.30;;;;;;;;;;5050800;28;20108;-74
2022/04/28 00:32:31;;;;;;;13.40;8.75;;;;;;;;;;5050950;28;20079;-74
2022/04/28 00:34:56;;;;;;;9.63;8.15;;;;;;;;;;5050874;28;20028;-74
2022/04/28 00:37:22;;;;;;;9.95;8.23;;;;;;;;;;5050654;28;20031;-74
2022/04/28 00:39:48;;;;;;;10.55;8.07;;;;;;;;;;5050318;28;20029;-74
2022/04/28 00:42:15;;;;;;;13.48;9.27;;;;;;;;;;5050588;28;20183;-74
2022/04/28 00:44:41;;;;;;;12.77;8.48;;;;;;;;;;5050890;28;20032;-73
2022/04/28 00:47:10;;;;;;;10.57;9.07;;;;;;;;;;5050587;28;20563;-74
2022/04/28 00:52:21;;;;;;;9.82;8.13;;;;;;;;;;5050427;28;20071;-74
2022/04/28 00:54:49;;;;;;;12.02;8.30;;;;;;;;;;5050300;28;20059;-74
2022/04/28 00:57:15;;;;;;;10.35;8.63;;;;;;;;;;5049885;28;20024;-74
2022/04/28 00:59:41;;;;;;;9.25;7.40;;;;;;;;;;5048468;28;20544;-73
2022/04/28 01:02:06;;;;;;;7.88;6.82;;;;;;;;;;5050166;28;20029;-74
2022/04/28 01:04:33;;;;;;;11.23;7.22;;;;;;;;;;5050136;28;20490;-75
2022/04/28 01:06:58;;;;;;;10.10;7.45;;;;;;;;;;5050127;28;20032;-74
2022/04/28 01:09:24;;;;;;;18.00;10.10;;;;;;;;;;5049495;28;20120;-75
2022/04/28 01:11:49;;;;;;;12.20;9.23;;;;;;;;;;5050041;28;20024;-75
2022/04/28 01:14:15;;;;;;;12.93;9.20;;;;;;;;;;5048501;28;20025;-75
2022/04/28 01:16:40;;;;;;;12.40;9.10;;;;;;;;;;5049930;28;20071;-75
2022/04/28 01:19:06;;;;;;;15.18;9.75;;;;;;;;;;5049444;28;20506;-75
2022/04/28 01:21:31;;;;;;;12.55;10.52;;;;;;;;;;5050021;28;20521;-75
2022/04/28 01:23:56;;;;;;;13.20;10.32;;;;;;;;;;5049896;28;20417;-75
2022/04/28 01:26:23;;;;;;;12.85;9.38;;;;;;;;;;5050131;28;20036;-75
2022/04/28 01:28:48;;;;;;;12.70;9.77;;;;;;;;;;5049657;28;20031;-75
2022/04/28 01:31:14;;;;;;;17.83;10.50;;;;;;;;;;5049765;28;20025;-75
2022/04/28 01:33:39;;;;;;;14.70;10.27;;;;;;;;;;5049628;28;20490;-74
2022/04/28 01:36:05;;;;;;;12.57;10.43;;;;;;;;;;5050019;28;20053;-75
2022/04/28 01:38:32;;;;;;;12.07;8.77;;;;;;;;;;5049437;28;20029;-75
2022/04/28 01:40:57;;;;;;;10.57;9.15;;;;;;;;;;5049572;28;20032;-75
2022/04/28 01:43:23;;;;;;;10.75;8.68;;;;;;;;;;5049315;28;20033;-75
2022/04/28 01:45:48;;;;;;;11.00;8.10;;;;;;;;;;5049351;28;20055;-75
2022/04/28 01:48:13;;;;;;;9.35;7.93;;;;;;;;;;5048956;28;20064;-75
2022/04/28 01:50:39;;;;;;;11.10;8.30;;;;;;;;;;5049620;28;20063;-75
2022/04/28 01:55:48;;;;;;;9.98;8.32;;;;;;;;;;5049492;28;20040;-75
2022/04/28 01:58:13;;;;;;;12.48;8.68;;;;;;;;;;5048937;28;20021;-75
2022/04/28 02:00:39;;;;;;;12.85;9.05;;;;;;;;;;5048994;28;20408;-75
2022/04/28 02:03:04;;;;;;;11.20;9.02;;;;;;;;;;5049383;28;20563;-75
2022/04/28 02:05:29;;;;;;;12.52;9.45;;;;;;;;;;5048964;28;20110;-75
2022/04/28 02:07:54;;;;;;;12.18;9.73;;;;;;;;;;5048135;28;20444;-75
2022/04/28 02:10:20;;;;;;;11.63;9.35;;;;;;;;;;5048742;28;20060;-75
2022/04/28 02:12:45;;;;;;;14.77;11.10;;;;;;;;;;5048992;28;20425;-75
2022/04/28 02:15:11;;;;;;;15.32;11.30;;;;;;;;;;5048819;28;20408;-75
2022/04/28 02:17:38;;;;;;;14.45;11.25;;;;;;;;;;5049098;28;20474;-75
2022/04/28 02:20:09;;;;;;;17.58;11.90;;;;;;;;;;5048658;28;20023;-75
2022/04/28 02:22:36;;;;;;;16.38;11.73;;;;;;;;;;5049142;28;20025;-75
2022/04/28 02:25:02;;;;;;;15.60;11.65;;;;;;;;;;5049048;28;20021;-75
2022/04/28 02:27:27;;;;;;;14.27;11.45;;;;;;;;;;5048931;28;20033;-75
2022/04/28 02:29:53;;;;;;;15.05;11.57;;;;;;;;;;5048510;28;20536;-75
2022/04/28 02:32:18;;;;;;;15.63;11.63;;;;;;;;;;5048760;28;20029;-75
2022/04/28 02:34:43;;;;;;;15.20;11.15;;;;;;;;;;5048710;28;20029;-75
2022/04/28 02:37:09;;;;;;;20.35;11.70;;;;;;;;;;5048708;28;20040;-75
2022/04/28 02:39:34;;;;;;;13.48;10.55;;;;;;;;;;5048714;28;20447;-75
2022/04/28 02:42:00;;;;;;;13.18;9.73;;;;;;;;;;5048616;28;20036;-75
2022/04/28 02:44:25;;;;;;;15.25;11.07;;;;;;;;;;5048711;28;20067;-75
2022/04/28 02:46:50;;;;;;;14.73;11.10;;;;;;;;;;5048704;28;20107;-75
2022/04/28 02:49:16;;;;;;;16.10;11.15;;;;;;;;;;5046943;28;20040;-75
2022/04/28 02:51:42;;;;;;;17.35;11.90;;;;;;;;;;5048624;28;20025;-75
2022/04/28 02:54:08;;;;;;;17.00;12.60;;;;;;;;;;5048509;28;20029;-75
2022/04/28 02:56:34;;;;;;;15.98;11.77;;;;;;;;;;5048493;28;20031;-75
2022/04/28 02:58:59;;;;;;;17.35;11.88;;;;;;;;;;5048371;28;20075;-75
2022/04/28 03:01:24;;;;;;;15.50;11.82;;;;;;;;;;5048487;28;20070;-75
2022/04/28 03:03:51;;;;;;;17.48;11.07;;;;;;;;;;5047284;28;20017;-75
2022/04/28 03:11:44;;;;;;;15.95;11.32;;;;;;;;;;5048497;28;20599;-74
2022/04/28 03:14:10;;;;;;;15.20;11.60;;;;;;;;;;5048339;28;20052;-75
2022/04/28 03:16:36;;;;;;;15.32;11.32;;;;;;;;;;5048536;28;20021;-75
2022/04/28 03:19:01;;;;;;;16.30;10.60;;;;;;;;;;5049399;28;20025;-75
2022/04/28 03:21:27;;;;;;;17.42;12.60;;;;;;;;;;5052703;28;20088;-75
2022/04/28 03:23:53;;;;;;;19.13;13.23;;;;;;;;;;5052078;28;20255;-75
2022/04/28 03:26:18;;;;;;;18.00;11.98;;;;;;;;;;5052033;28;20044;-74
2022/04/28 03:28:43;;;;;;;15.15;11.25;;;;;;;;;;5051699;28;20489;-74
2022/04/28 03:31:09;;;;;;;16.02;11.55;;;;;;;;;;5052127;28;20217;-75
2022/04/28 03:33:34;;;;;;;15.32;11.88;;;;;;;;;;5051907;28;20036;-75
2022/04/28 03:36:00;;;;;;;14.52;11.50;;;;;;;;;;5051717;28;20119;-75
2022/04/28 03:38:25;;;;;;;16.48;12.13;;;;;;;;;;5051449;28;20040;-75
2022/04/28 03:40:51;;;;;;;14.85;10.77;;;;;;;;;;5051784;28;20071;-75
2022/04/28 03:43:17;;;;;;;14.70;11.27;;;;;;;;;;5051929;28;20086;-75
2022/04/28 03:45:43;;;;;;;16.52;11.85;;;;;;;;;;5051692;28;20086;-75
2022/04/28 03:48:09;;;;;;;15.63;11.55;;;;;;;;;;5051308;28;20024;-75
2022/04/28 03:50:35;;;;;;;20.33;13.00;;;;;;;;;;5050038;28;20036;-74
2022/04/28 03:53:01;;;;;;;13.90;11.00;;;;;;;;;;5051545;28;20111;-75
2022/04/28 03:55:26;;;;;;;15.27;11.75;;;;;;;;;;5051352;28;20116;-75
2022/04/28 03:57:52;;;;;;;14.07;11.73;;;;;;;;;;5051497;28;20035;-74
2022/04/28 04:00:18;;;;;;;16.73;12.30;;;;;;;;;;5051117;28;20040;-75
2022/04/28 04:02:44;;;;;;;15.75;11.55;;;;;;;;;;5051346;28;20439;-75
2022/04/28 04:05:09;;;;;;;16.35;11.93;;;;;;;;;;5051258;28;20095;-75
2022/04/28 04:07:38;;;;;;;19.38;11.70;;;;;;;;;;5051252;28;20067;-74
2022/04/28 04:10:05;;;;;;;16.63;11.48;;;;;;;;;;5050882;28;20517;-75
2022/04/28 04:12:30;;;;;;;14.85;11.27;;;;;;;;;;5051246;28;20036;-74
2022/04/28 04:14:55;;;;;;;14.32;10.70;;;;;;;;;;5049748;28;20029;-74
2022/04/28 04:17:21;;;;;;;20.63;12.68;;;;;;;;;;5051211;28;20465;-74
2022/04/28 04:19:46;;;;;;;16.40;11.77;;;;;;;;;;5050886;28;20024;-75
2022/04/28 04:22:12;;;;;;;20.25;12.95;;;;;;;;;;5051308;28;20158;-75
2022/04/28 04:24:38;;;;;;;17.52;12.07;;;;;;;;;;5050966;28;20028;-75
2022/04/28 04:27:03;;;;;;;16.95;11.68;;;;;;;;;;5050833;28;20098;-75
2022/04/28 04:29:29;;;;;;;18.95;12.10;;;;;;;;;;5050589;28;20060;-75
2022/04/28 04:34:38;;;;;;;17.00;11.90;;;;;;;;;;5050632;28;20051;-75
2022/04/28 04:37:03;;;;;;;18.65;12.93;;;;;;;;;;5050740;28;20025;-75
2022/04/28 04:39:28;;;;;;;18.65;12.63;;;;;;;;;;5050427;28;20501;-75
2022/04/28 04:41:53;;;;;;;17.05;12.13;;;;;;;;;;5050486;28;20112;-75
2022/04/28 04:44:19;;;;;;;20.30;12.82;;;;;;;;;;5050719;28;20024;-75
2022/04/28 04:46:44;;;;;;;15.88;12.45;;;;;;;;;;5050574;28;20025;-75
2022/04/28 04:49:10;;;;;;;19.38;13.60;;;;;;;;;;5048710;28;20033;-75
2022/04/28 04:51:36;;;;;;;16.50;12.63;;;;;;;;;;5050393;28;20067;-75
2022/04/28 04:54:01;;;;;;;19.08;14.05;;;;;;;;;;5050732;28;20033;-75
2022/04/28 04:56:27;;;;;;;17.88;12.32;;;;;;;;;;5050463;28;20020;-74
2022/04/28 04:58:52;;;;;;;22.40;14.13;;;;;;;;;;5050285;28;20409;-75
2022/04/28 05:01:17;;;;;;;21.95;14.35;;;;;;;;;;5050221;28;20032;-74
2022/04/28 05:03:43;;;;;;;18.95;13.30;;;;;;;;;;5050201;28;20074;-75
2022/04/28 05:06:08;;;;;;;19.52;13.52;;;;;;;;;;5050102;28;20051;-74
2022/04/28 05:08:34;;;;;;;18.70;12.68;;;;;;;;;;5050021;28;20036;-75
2022/04/28 05:10:59;;;;;;;18.20;13.38;;;;;;;;;;5050407;28;20052;-74
2022/04/28 05:13:25;;;;;;;17.90;12.90;;;;;;;;;;5047117;28;20052;-75
2022/04/28 05:15:50;;;;;;;18.05;12.60;;;;;;;;;;5049846;28;20027;-74
2022/04/28 05:18:15;;;;;;;15.82;12.50;;;;;;;;;;5046386;28;20033;-74
2022/04/28 05:20:41;;;;;;;20.42;12.82;;;;;;;;;;5049796;28;20496;-75
2022/04/28 05:23:06;;;;;;;21.92;13.20;;;;;;;;;;5049980;28;20106;-75
2022/04/28 05:25:31;;;;;;;19.83;13.80;;;;;;;;;;5049761;28;20043;-76
2022/04/28 05:27:57;;;;;;;21.20;13.75;;;;;;;;;;5049670;28;20096;-74
2022/04/28 05:30:23;;;;;;;20.45;13.43;;;;;;;;;;5049829;28;20029;-74
2022/04/28 05:32:48;;;;;;;18.60;13.73;;;;;;;;;;5049813;28;20029;-74
2022/04/28 05:35:13;;;;;;;20.02;12.73;;;;;;;;;;5049415;28;20039;-74
2022/04/28 05:37:39;;;;;;;19.02;13.63;;;;;;;;;;5049227;28;20055;-74
2022/04/28 05:40:06;;;;;;;23.83;13.57;;;;;;;;;;5049510;28;20044;-74
2022/04/28 05:47:59;;;;;;;21.30;14.13;;;;;;;;;;5049131;28;20071;-74
2022/04/28 05:50:26;;;;;;;23.20;15.82;;;;;;;;;;5049244;28;20028;-74
2022/04/28 05:52:51;;;;;;;21.98;14.77;;;;;;;;;;5049127;28;20453;-74
2022/04/28 05:55:16;;;;;;;19.23;12.88;;;;;;;;;;5049246;28;20109;-74
2022/04/28 05:57:42;;;;;;;13.82;11.23;;;;;;;;;;5049184;28;20428;-74
2022/04/28 06:00:08;;;;;;;15.70;10.70;;;;;;;;;;5049258;28;20132;-74
2022/04/28 06:02:33;;;;;;;21.48;13.60;;;;;;;;;;5049084;28;20025;-74
2022/04/28 06:05:00;;;;;;;20.20;13.43;;;;;;;;;;5048892;28;20049;-74
2022/04/28 06:07:26;;;;;;;20.08;14.10;;;;;;;;;;5045347;28;20090;-75
2022/04/28 06:09:51;;;;;;;17.92;12.73;;;;;;;;;;5047694;28;20032;-75
2022/04/28 06:12:17;;;;;;;15.70;10.85;;;;;;;;;;5048106;28;20032;-75
2022/04/28 06:14:42;;;;;;;14.55;10.82;;;;;;;;;;5045081;28;20063;-75
2022/04/28 06:17:08;;;;;;;15.95;10.80;;;;;;;;;;5048337;28;20111;-74
2022/04/28 06:19:33;;;;;;;16.38;10.27;;;;;;;;;;5045680;28;20021;-75
2022/04/28 06:21:59;;;;;;;15.43;11.13;;;;;;;;;;5044949;28;20393;-76
2022/04/28 06:24:25;;;;;;;16.25;12.75;;;;;;;;;;5044939;28;20025;-75
2022/04/28 06:26:51;;;;;;;15.43;11.00;;;;;;;;;;5045225;28;20053;-74
2022/04/28 06:29:16;;;;;;;15.73;11.60;;;;;;;;;;5043718;28;20053;-74
2022/04/28 06:31:42;;;;;;;14.35;11.95;;;;;;;;;;5045000;28;20028;-74
2022/04/28 06:34:07;;;;;;;14.70;10.25;;;;;;;;;;5045049;28;20474;-75
2022/04/28 06:36:34;;;;;;;13.20;9.95;;;;;;;;;;5045709;28;20028;-75
2022/04/28 06:39:00;;;;;;;15.48;10.23;;;;;;;;;;5045084;28;20103;-75
2022/04/28 06:41:25;;;;;;;12.02;9.15;;;;;;;;;;5038951;28;20111;-74
2022/04/28 06:43:50;;;;;;;12.50;10.27;;;;;;;;;;5043487;28;20029;-74
2022/04/28 06:46:16;;;;;;;11.52;8.93;;;;;;;;;;5043371;28;20025;-74
2022/04/28 06:48:41;;;;;;;11.57;8.95;;;;;;;;;;5043720;28;20033;-74
2022/04/28 06:51:07;;;;;;;13.10;9.10;;;;;;;;;;5042978;28;20029;-74
2022/04/28 06:53:32;;;;;;;12.20;9.45;;;;;;;;;;5044570;28;20071;-74
2022/04/28 06:55:58;;;;;;;10.73;8.63;;;;;;;;;;5048520;28;20037;-74
2022/04/28 06:58:23;;;;;;;10.10;8.73;;;;;;;;;;5048225;28;20039;-73
2022/04/28 07:00:52;;;;;;;12.65;9.38;;;;;;;;;;5049218;28;20024;-73
2022/04/28 07:03:18;;;;;;;11.25;8.18;;;;;;;;;;5049451;28;20018;-75
2022/04/28 07:05:43;;;;;;;12.77;8.45;;;;;;;;;;5049002;28;20400;-75
2022/04/28 07:08:08;;;;;;;9.65;7.60;;;;;;;;;;5046839;28;20032;-75
2022/04/28 07:10:37;;;;;;;8.60;7.80;;;;;;;;;;5048495;28;20048;-75
2022/04/28 07:13:02;;;;;;;10.38;8.02;;;;;;;;;;5048227;28;20025;-76
2022/04/28 07:15:28;;;;;;;11.60;8.90;;;;;;;;;;5047618;28;20094;-76
2022/04/28 07:17:53;;;;;;;10.30;8.93;;;;;;;;;;5046261;28;20094;-75
2022/04/28 07:20:19;;;;;;;9.30;8.15;;;;;;;;;;5048865;28;20021;-74
2022/04/28 07:22:44;;;;;;;9.05;8.13;;;;;;;;;;5046708;28;20125;-77
2022/04/28 07:25:09;;;;;;;13.88;9.52;;;;;;;;;;5047166;28;20120;-75
2022/04/28 07:27:35;;;;;;;11.73;9.25;;;;;;;;;;5048202;28;20036;-75
2022/04/28 07:30:02;;;;;;;15.57;9.50;;;;;;;;;;5048190;28;20047;-75
2022/04/28 07:32:28;;;;;;;10.63;8.85;;;;;;;;;;5048495;28;20013;-76
2022/04/28 07:34:53;;;;;;;12.27;10.13;;;;;;;;;;5047732;28;20429;-73
2022/04/28 07:37:18;;;;;;;14.32;12.48;;;;;;;;;;5048287;28;20021;-75
2022/04/28 07:39:43;;;;;;;18.00;12.95;;;;;;;;;;5048278;28;20044;-72
2022/04/28 07:42:09;;;;;;;18.75;12.70;;;;;;;;;;5048483;28;20043;-75
2022/04/28 07:44:35;;;;;;;16.30;11.65;;;;;;;;;;5047191;28;20480;-75
2022/04/28 07:47:01;;;;;;;14.52;11.27;;;;;;;;;;5048488;28;20609;-73
2022/04/28 07:49:26;;;;;;;16.50;12.25;;;;;;;;;;5048193;28;20036;-74
2022/04/28 07:51:52;;;;;;;16.45;12.13;;;;;;;;;;5046649;28;20028;-74
2022/04/28 07:54:17;;;;;;;14.15;12.23;;;;;;;;;;5047615;28;20119;-74
2022/04/28 07:56:44;;;;;;;15.45;11.63;;;;;;;;;;5047432;28;20028;-73
2022/04/28 07:59:10;;;;;;;10.80;8.68;;;;;;;;;;5047337;28;20067;-74
2022/04/28 08:01:36;;;;;;;10.32;8.23;;;;;;;;;;5028514;28;20026;-75
2022/04/28 08:04:01;;;;;;;9.77;8.15;;;;;;;;;;5035012;28;20032;-77
2022/04/28 08:06:27;;;;;;;12.35;9.82;;;;;;;;;;5047082;28;20033;-72
2022/04/28 08:08:52;;;;;;;11.65;9.60;;;;;;;;;;5045358;28;20025;-74
2022/04/28 08:11:17;;;;;;;11.45;9.18;;;;;;;;;;5046554;28;20095;-73
2022/04/28 08:13:43;;;;;;;10.77;9.18;;;;;;;;;;5048000;28;20040;-70
2022/04/28 08:16:08;;;;;;;13.85;9.63;;;;;;;;;;5047741;28;20029;-72
2022/04/28 08:18:36;;;;;;;11.40;9.87;;;;;;;;;;5047977;28;20028;-70
2022/04/28 08:21:02;;;;;;;11.65;9.27;;;;;;;;;;5047948;28;20309;-73
2022/04/28 08:23:27;;;;;;;9.52;8.20;;;;;;;;;;5045995;28;20117;-73
2022/04/28 08:25:52;;;;;;;9.55;8.60;;;;;;;;;;5045626;28;20031;-75
2022/04/28 08:28:18;;;;;;;10.73;8.85;;;;;;;;;;5047043;28;20549;-75
2022/04/28 08:30:43;;;;;;;11.02;8.90;;;;;;;;;;5047335;28;20032;-72
2022/04/28 08:33:08;;;;;;;11.10;9.20;;;;;;;;;;5048044;28;20286;-73
2022/04/28 08:35:34;;;;;;;9.73;8.48;;;;;;;;;;5052420;28;20478;-72
2022/04/28 08:37:59;;;;;;;11.60;9.23;;;;;;;;;;5054130;28;20035;-74
2022/04/28 08:40:25;;;;;;;10.85;8.48;;;;;;;;;;5045740;28;20025;-75
2022/04/28 08:42:52;;;;;;;10.48;8.65;;;;;;;;;;5047326;28;20303;-75
2022/04/28 08:45:25;;;;;;;10.68;8.05;;;;;;;;;;5048067;28;20044;-74
2022/04/28 08:47:52;;;;;;;13.50;8.30;;;;;;;;;;5047577;28;20024;-72
2022/04/28 08:50:21;;;;;;;10.38;8.20;;;;;;;;;;5046751;28;20187;-75
2022/04/28 08:52:48;;;;;;;9.63;7.97;;;;;;;;;;5045366;28;20028;-69
2022/04/28 08:55:15;;;;;;;10.90;8.20;;;;;;;;;;5047208;28;20021;-74
2022/04/28 08:57:40;;;;;;;12.27;8.65;;;;;;;;;;5046041;28;20092;-74
2022/04/28 09:00:06;;;;;;;11.95;8.13;;;;;;;;;;5046868;28;20063;-72
2022/04/28 09:02:32;;;;;;;9.40;8.40;;;;;;;;;;5047700;28;20021;-73
2022/04/28 09:05:04;;;;;;;10.63;8.15;;;;;;;;;;5045895;28;20075;-74
2022/04/28 09:07:37;;;;;;;9.40;7.85;;;;;;;;;;5046438;28;20052;-76
2022/04/28 09:10:27;;;;;;;12.35;7.30;;;;;;;;;;5046673;28;20215;-70
2022/04/28 09:15:52;;;;;;;8.05;7.25;;;;;;;;;;5046491;28;20048;-73
2022/04/28 09:18:18;;;;;;;8.45;6.18;;;;;;;;;;5046744;28;20029;-73
2022/04/28 09:20:45;;;;;;;9.73;6.95;;;;;;;;;;5044151;28;20029;-74
2022/04/28 09:23:11;;;;;;;9.27;6.53;;;;;;;;;;5044461;28;20040;-72
2022/04/28 09:25:38;;;;;;;6.00;5.50;;;;;;;;;;5045106;28;20535;-74
2022/04/28 09:28:04;;;;;;;7.63;5.68;;;;;;;;;;5045881;28;20256;-74
2022/04/28 09:30:42;;;;;;;6.72;4.90;;;;;;;;;;5046689;28;20371;-69
2022/04/28 09:33:09;;;;;;;7.50;5.47;;;;;;;;;;5045722;28;20024;-72
2022/04/28 09:35:35;;;;;;;8.00;4.95;;;;;;;;;;5045939;28;20028;-75
2022/04/28 09:38:00;;;;;;;5.13;4.63;;;;;;;;;;5044939;28;20032;-73
2022/04/28 09:43:11;;;;;;;5.57;4.25;;;;;;;;;;5037870;28;20032;-71
2022/04/28 09:45:38;;;;;;;5.50;4.70;;;;;;;;;;5046911;28;20017;-75
2022/04/28 09:48:05;;;;;;;4.85;4.22;;;;;;;;;;5045953;28;20085;-73
2022/04/28 09:50:31;;;;;;;5.03;4.57;;;;;;;;;;5045774;28;20020;-73
2022/04/28 09:53:02;;;;;;;4.75;3.30;;;;;;;;;;5045870;28;20025;-72
2022/04/28 09:55:29;;;;;;;3.22;2.90;;;;;;;;;;5045629;28;20467;-74
2022/04/28 09:57:55;;;;;;;3.70;3.10;;;;;;;;;;5044612;28;20029;-73
2022/04/28 10:00:21;;;;;;;2.95;2.63;;;;;;;;;;5046307;28;20039;-72
2022/04/28 10:02:47;;;;;;;3.08;2.60;;;;;;;;;;5045532;28;20107;-75
2022/04/28 10:05:14;;;;;;;4.57;2.90;;;;;;;;;;5046172;28;20215;-73
2022/04/28 10:07:39;;;;;;;3.30;3.00;;;;;;;;;;5045101;28;20037;-76
2022/04/28 10:10:06;;;;;;;2.38;2.17;;;;;;;;;;5043567;28;20047;-69
2022/04/28 10:12:31;;;;;;;3.85;2.65;;;;;;;;;;5045740;28;20037;-70
2022/04/28 10:14:58;;;;;;;3.95;2.85;;;;;;;;;;5045397;28;20024;-74
2022/04/28 10:17:33;;;;;;;2.92;2.60;;;;;;;;;;5045606;28;20031;-73
2022/04/28 10:20:10;;;;;;;3.75;3.45;;;;;;;;;;5044577;28;20055;-71
2022/04/28 10:22:37;;;;;;;2.88;2.67;;;;;;;;;;5036919;28;20052;-71
2022/04/28 10:33:26;;;;;;;4.05;2.67;;;;;;;;;;5044808;28;20196;-72
2022/04/28 10:35:53;;;;;;;3.30;2.70;;;;;;;;;;5041275;28;20280;-73
2022/04/28 10:38:26;;;;;;;4.57;3.15;;;;;;;;;;5044710;28;20107;-70
2022/04/28 10:40:57;;;;;;;3.42;3.13;;;;;;;;;;5045414;28;20028;-73
2022/04/28 10:43:26;;;;;;;3.38;2.92;;;;;;;;;;5045264;28;20301;-74
2022/04/28 10:45:55;;;;;;;4.15;2.60;;;;;;;;;;5045436;28;20089;-73
2022/04/28 10:48:42;;;;;;;3.00;2.20;;;;;;;;;;5043914;28;20025;-71
2022/04/28 10:51:13;;;;;;;2.30;2.10;;;;;;;;;;5043878;28;20119;-72
2022/04/28 10:53:59;;;;;;;2.30;1.73;;;;;;;;;;5043094;28;20083;-71
2022/04/28 10:56:54;;;;;;;2.35;2.15;;;;;;;;;;5041442;28;20359;-73
2022/04/28 10:59:29;;;;;;;2.33;2.00;;;;;;;;;;5044354;28;20032;-73
2022/04/28 11:02:10;;;;;;;2.60;2.40;;;;;;;;;;5045515;28;20040;-73
2022/04/28 11:04:35;;;;;;;2.83;2.20;;;;;;;;;;5036673;28;20036;-72
2022/04/28 11:07:06;;;;;;;3.17;1.90;;;;;;;;;;5044918;28;20111;-75
2022/04/28 11:09:33;;;;;;;2.42;2.08;;;;;;;;;;5043048;28;20494;-74
2022/04/28 11:12:12;;;;;;;2.47;2.28;;;;;;;;;;5044703;28;20079;-73
2022/04/28 11:14:47;;;;;;;2.47;2.20;;;;;;;;;;5044613;28;20029;-74
2022/04/28 11:17:14;;;;;;;2.00;1.83;;;;;;;;;;5044898;28;20092;-75
2022/04/28 11:19:44;;;;;;;4.13;2.22;;;;;;;;;;5043796;28;20082;-75
2022/04/28 11:22:11;;;;;;;2.53;2.00;;;;;;;;;;5044631;28;20118;-74
2022/04/28 11:24:40;;;;;;;3.15;2.20;;;;;;;;;;5044562;28;20021;-74
2022/04/28 11:27:06;;;;;;;2.30;2.10;;;;;;;;;;5047160;28;20053;-74
2022/04/28 11:29:31;;;;;;;2.28;2.00;;;;;;;;;;5043573;28;20145;-75
2022/04/28 11:31:59;;;;;;;2.28;2.03;;;;;;;;;;5043315;28;20039;-75
2022/04/28 11:34:24;;;;;;;2.40;2.17;;;;;;;;;;5044406;28;20112;-75
2022/04/28 11:36:49;;;;;;;2.58;2.38;;;;;;;;;;5044442;28;20135;-76
2022/04/28 11:39:15;;;;;;;2.33;2.13;;;;;;;;;;5044617;28;20310;-73
2022/04/28 11:41:42;;;;;;;3.47;2.45;;;;;;;;;;5047118;28;20128;-74
2022/04/28 11:44:13;;;;;;;4.70;3.05;;;;;;;;;;5038877;28;20029;-74
2022/04/28 11:46:41;;;;;;;4.18;2.38;;;;;;;;;;5036697;28;20491;-72
2022/04/28 11:49:07;;;;;;;3.55;2.35;;;;;;;;;;5043954;28;20482;-77
2022/04/28 11:51:34;;;;;;;2.47;2.13;;;;;;;;;;5047952;28;20467;-75
2022/04/28 11:53:59;;;;;;;3.08;2.40;;;;;;;;;;5048749;28;20112;-73
2022/04/28 11:56:29;;;;;;;3.88;2.50;;;;;;;;;;5047850;28;20324;-73
2022/04/28 11:58:55;;;;;;;4.22;2.38;;;;;;;;;;5047125;28;20029;-72
2022/04/28 12:01:21;;;;;;;4.18;2.25;;;;;;;;;;5042716;28;20103;-73
2022/04/28 12:03:55;;;;;;;2.83;1.83;;;;;;;;;;5042678;28;20031;-71
2022/04/28 12:06:22;;;;;;;2.28;2.03;;;;;;;;;;5044438;28;20425;-70
2022/04/28 12:14:54;;;;;;;2.95;2.33;;;;;;;;;;5026901;28;20158;-72
2022/04/28 12:20:05;;;;;;;3.58;2.22;;;;;;;;;;5043087;28;20031;-73
2022/04/28 12:22:36;;;;;;;2.75;2.55;;;;;;;;;;5044188;28;20263;-73
2022/04/28 12:25:05;;;;;;;3.38;2.13;;;;;;;;;;5044649;28;20013;-72
2022/04/28 12:27:41;;;;;;;3.72;2.40;;;;;;;;;;5043934;28;20478;-72
2022/04/28 12:30:08;;;;;;;2.40;2.20;;;;;;;;;;5042606;28;20130;-71
2022/04/28 12:32:43;;;;;;;2.95;2.17;;;;;;;;;;5041394;28;20060;-70
2022/04/28 12:35:09;;;;;;;2.35;2.05;;;;;;;;;;5043243;28;20021;-70
2022/04/28 12:37:38;;;;;;;4.15;2.35;;;;;;;;;;5044078;28;20036;-72
2022/04/28 12:40:04;;;;;;;6.32;2.80;;;;;;;;;;5043054;28;20036;-73
2022/04/28 12:42:44;;;;;;;2.63;2.40;;;;;;;;;;5042799;28;20041;-71
2022/04/28 12:45:10;;;;;;;3.67;2.45;;;;;;;;;;5043446;28;20025;-67
2022/04/28 12:47:38;;;;;;;3.50;2.63;;;;;;;;;;5043546;28;20044;-73
2022/04/28 12:50:23;;;;;;;3.67;2.60;;;;;;;;;;5044140;28;20056;-70
2022/04/28 12:52:49;;;;;;;4.30;2.70;;;;;;;;;;5036666;28;20422;-72
2022/04/28 12:55:18;;;;;;;3.10;2.80;;;;;;;;;;5043479;28;20053;-73
2022/04/28 12:57:44;;;;;;;2.60;2.38;;;;;;;;;;5042198;28;20036;-70
2022/04/28 13:00:11;;;;;;;3.22;2.70;;;;;;;;;;5035094;28;20025;-71
2022/04/28 13:02:37;;;;;;;3.05;2.30;;;;;;;;;;5043866;28;20251;-71
2022/04/28 13:05:12;;;;;;;3.40;2.97;;;;;;;;;;5041933;28;20605;-69
2022/04/28 13:07:37;;;;;;;2.67;2.42;;;;;;;;;;5044597;28;20095;-69
2022/04/28 13:10:03;;;;;;;3.20;2.30;;;;;;;;;;5050845;28;20039;-70
2022/04/28 13:12:28;;;;;;;3.25;2.35;;;;;;;;;;5042569;28;20032;-72
2022/04/28 13:14:53;;;;;;;3.63;2.75;;;;;;;;;;5039607;28;20379;-70
2022/04/28 13:17:19;;;;;;;4.47;2.60;;;;;;;;;;5044344;28;20416;-72
2022/04/28 13:19:44;;;;;;;3.35;2.50;;;;;;;;;;5041915;28;20367;-71
2022/04/28 13:22:09;;;;;;;3.53;2.45;;;;;;;;;;5043124;28;20308;-71
2022/04/28 13:24:35;;;;;;;4.00;2.83;;;;;;;;;;5053064;28;20125;-71
2022/04/28 13:27:00;;;;;;;3.03;2.60;;;;;;;;;;5044004;28;20082;-69
2022/04/28 13:29:25;;;;;;;3.15;2.80;;;;;;;;;;5040554;28;20289;-71
2022/04/28 13:31:50;;;;;;;5.60;3.03;;;;;;;;;;5041579;28;20040;-70
2022/04/28 13:34:16;;;;;;;4.78;2.90;;;;;;;;;;5043981;28;20025;-70
2022/04/28 13:36:42;;;;;;;3.55;2.92;;;;;;;;;;5040307;28;20052;-70
2022/04/28 13:39:08;;;;;;;3.50;2.72;;;;;;;;;;5043011;28;20029;-68
2022/04/28 13:41:33;;;;;;;4.18;2.78;;;;;;;;;;5039879;28;20318;-72
2022/04/28 13:43:59;;;;;;;3.08;2.53;;;;;;;;;;5045752;28;20091;-75
2022/04/28 13:46:24;;;;;;;2.45;2.20;;;;;;;;;;5047102;28;20048;-74
2022/04/28 13:48:50;;;;;;;2.63;2.38;;;;;;;;;;5043261;28;20043;-72
2022/04/28 13:51:15;;;;;;;3.67;2.78;;;;;;;;;;5045603;28;20030;-72
2022/04/28 13:53:42;;;;;;;2.53;2.33;;;;;;;;;;5048027;28;20036;-73
2022/04/28 13:56:07;;;;;;;3.40;2.60;;;;;;;;;;5045973;28;20067;-73
2022/04/28 13:58:35;;;;;;;2.38;2.17;;;;;;;;;;5044269;28;20033;-74
2022/04/28 14:01:01;;;;;;;5.15;2.45;;;;;;;;;;5046939;28;20025;-72
2022/04/28 14:03:29;;;;;;;2.78;2.47;;;;;;;;;;5044287;28;20104;-73
2022/04/28 14:05:55;;;;;;;4.20;2.58;;;;;;;;;;5044379;28;20013;-71
2022/04/28 14:08:21;;;;;;;3.50;2.33;;;;;;;;;;5044166;28;20024;-73
2022/04/28 14:10:47;;;;;;;4.05;2.50;;;;;;;;;;5042501;28;20037;-71
2022/04/28 14:13:13;;;;;;;2.70;2.40;;;;;;;;;;5041301;28;20032;-70
2022/04/28 14:15:39;;;;;;;3.08;2.80;;;;;;;;;;5043807;28;20032;-70
2022/04/28 14:18:07;;;;;;;4.57;2.80;;;;;;;;;;5044193;28;20106;-73
2022/04/28 14:20:34;;;;;;;2.97;2.20;;;;;;;;;;5045680;28;20025;-71
2022/04/28 14:22:59;;;;;;;3.17;2.53;;;;;;;;;;5043538;28;20037;-73
2022/04/28 14:25:25;;;;;;;4.25;2.50;;;;;;;;;;5044054;28;20028;-72
2022/04/28 14:27:50;;;;;;;2.67;2.47;;;;;;;;;;5046121;28;20078;-74
2022/04/28 14:30:15;;;;;;;4.47;2.47;;;;;;;;;;5044629;28;20021;-72
2022/04/28 14:32:41;;;;;;;3.13;2.80;;;;;;;;;;5044685;28;20043;-72
2022/04/28 14:35:08;;;;;;;3.40;2.75;;;;;;;;;;5045096;28;20017;-74
2022/04/28 14:37:34;;;;;;;5.40;2.67;;;;;;;;;;5045945;28;20134;-72
2022/04/28 14:40:00;;;;;;;3.95;2.70;;;;;;;;;;5043976;28;20029;-72
2022/04/28 14:42:26;;;;;;;3.75;2.17;;;;;;;;;;5046032;28;20323;-73
2022/04/28 14:44:51;;;;;;;3.38;2.60;;;;;;;;;;5045253;28;20493;-72
2022/04/28 14:47:16;;;;;;;3.00;2.70;;;;;;;;;;5045008;28;20025;-72
2022/04/28 14:52:27;;;;;;;5.47;2.80;;;;;;;;;;5040636;28;20044;-74
2022/04/28 14:54:55;;;;;;;3.97;2.50;;;;;;;;;;5043497;28;20028;-72
2022/04/28 14:57:29;;;;;;;2.97;2.67;;;;;;;;;;5045911;28;20025;-72
2022/04/28 14:59:55;;;;;;;3.60;2.47;;;;;;;;;;5043451;28;20471;-72
2022/04/28 15:02:21;;;;;;;3.08;2.28;;;;;;;;;;5043875;28;20028;-73
2022/04/28 15:04:47;;;;;;;2.80;2.60;;;;;;;;;;5043398;28;20462;-74
2022/04/28 15:07:14;;;;;;;2.83;2.30;;;;;;;;;;5046890;28;20029;-74
2022/04/28 15:09:39;;;;;;;3.83;2.72;;;;;;;;;;5047735;28;20494;-74
2022/04/28 15:12:05;;;;;;;4.15;2.80;;;;;;;;;;5053347;28;20048;-73